Kremmling, CO

8:12 PM MST on November 17, 2019 (GMT -0700)
Kremmling

Weather History for K20V - September, 2019

Change the Weather History Date:

Wednesday, September 25, 2019

  Actual Average Record
Temperature  
Mean Temperature 54 °F -  
Max Temperature 77 °F - 81 °F (2015)
Min Temperature 30 °F - 23 °F (2003)
Degree Days  
Heating Degree Days 12    
Month to date heating degree days 205  
Cooling Degree Days 0    
Month to date cooling degree days 4  
Growing Degree Days 4 (Base 50)    
Moisture  
Dew Point 30 °F    
Average Humidity 51    
Maximum Humidity 86    
Minimum Humidity 21    
Precipitation  
Precipitation 0.00 in - 0.00 in (2019)
Snow  
Snow 0.00 in - - ()
Snow Depth 0.00 in    
Sea Level Pressure  
Sea Level Pressure 30.22 in    
Wind  
Wind Speed 2 mph ()    
Max Wind Speed 17 mph    
Max Gust Speed 21 mph    
Visibility 10.0 miles    
Events      
T = Trace of Precipitation, MM = Missing Value Source: Averaged Metar Reports

Daily Weather History Graph

Daily Weather History Graph

Search for Another Location

Airport or City:

Astronomy

Sep. 25, 2019 Rise Set
Actual Time 6:55 AM MDT 6:57 PM MDT
Civil Twilight 6:28 AM MDT 7:24 PM MDT
Nautical Twilight 5:57 AM MDT 7:56 PM MDT
Astronomical Twilight 5:25 AM MDT 8:28 PM MDT
Moon 2:52 AM MDT (9/25) 5:31 PM MDT (9/25)
Length of Visible Light 12h 56m
Length of Day
12h 02m
Waning Crescent, 13% of the Moon is Illuminated
Sep 25
Waning Crescent
Sep 28
New
Oct 5
First Quarter
Oct 13
Full
Oct 21
Last Quarter

Hourly Weather History & Observations

Time (MDT) Temp. Windchill Dew Point Humidity Pressure Visibility Wind Dir Wind Speed Gust Speed Precip Events Conditions
12:12 AM 37.4 °F - 28.4 °F 70% 30.24 in 10.0 mi Calm Calm - N/A   Clear
12:30 AM 37.4 °F - 30.2 °F 75% 30.24 in 10.0 mi Calm Calm - N/A   Clear
12:53 AM 37.4 °F - 30.2 °F 75% 30.24 in 10.0 mi Calm Calm - N/A   Clear
1:12 AM 35.6 °F - 28.4 °F 75% 30.24 in 10.0 mi Calm Calm - N/A   Clear
1:30 AM 35.6 °F - 30.2 °F 81% 30.24 in 10.0 mi Calm Calm - N/A   Clear
1:48 AM 33.8 °F - 28.4 °F 81% 30.24 in 10.0 mi Calm Calm - N/A   Clear
2:08 AM 33.8 °F - 26.6 °F 75% 30.24 in 10.0 mi Calm Calm - N/A   Clear
2:32 AM 33.8 °F - 26.6 °F 75% 30.24 in 10.0 mi Calm Calm - N/A   Clear
2:50 AM 33.8 °F - 26.6 °F 75% 30.24 in 10.0 mi Calm Calm - N/A   Clear
3:12 AM 33.8 °F - 26.6 °F 75% 30.24 in 10.0 mi Calm Calm - N/A   Clear
3:30 AM 33.8 °F - 26.6 °F 75% 30.24 in 10.0 mi Calm Calm - N/A   Clear
3:48 AM 32.0 °F - 23.0 °F 69% 30.24 in 10.0 mi Calm Calm - N/A   Clear
4:12 AM 32.0 °F - 26.6 °F 80% 30.25 in 10.0 mi Calm Calm - N/A   Clear
4:30 AM 32.0 °F - 26.6 °F 80% 30.25 in 10.0 mi Calm Calm - N/A   Clear
4:48 AM 32.0 °F - 26.6 °F 80% 30.25 in 10.0 mi Calm Calm - N/A   Clear
5:12 AM 30.2 °F - 23.0 °F 75% 30.25 in 10.0 mi Calm Calm - N/A   Clear
5:30 AM 30.2 °F - 24.8 °F 80% 30.25 in 10.0 mi Calm Calm - N/A   Clear
5:48 AM 30.2 °F - 24.8 °F 80% 30.25 in 10.0 mi Calm Calm - N/A   Clear
6:12 AM 30.2 °F - 26.6 °F 86% 30.26 in 10.0 mi Calm Calm - N/A   Clear
6:30 AM 30.2 °F 26.7 °F 24.8 °F 80% 30.26 in 10.0 mi SSW 3.5 mph - N/A   Clear
6:48 AM 30.2 °F - 26.6 °F 86% 30.26 in 10.0 mi Calm Calm - N/A   Clear
7:12 AM 30.2 °F - 23.0 °F 75% 30.27 in 10.0 mi Calm Calm - N/A   Clear
7:30 AM 30.2 °F - 23.0 °F 75% 30.27 in 10.0 mi Calm Calm - N/A   Clear
7:48 AM 33.8 °F - 26.6 °F 75% 30.27 in 10.0 mi Calm Calm - N/A   Clear
8:07 AM 35.6 °F - 26.6 °F 70% 30.27 in 10.0 mi Calm Calm - N/A   Clear
8:31 AM 37.4 °F - 28.4 °F 70% 30.28 in 10.0 mi Calm Calm - N/A   Clear
8:49 AM 39.2 °F - 28.4 °F 65% 30.28 in 10.0 mi Calm Calm - N/A   Clear
9:12 AM 42.8 °F - 28.4 °F 57% 30.28 in 10.0 mi Calm Calm - N/A   Clear
9:30 AM 44.6 °F - 30.2 °F 57% 30.28 in 10.0 mi Calm Calm - N/A   Clear
9:48 AM 48.2 °F - 30.2 °F 50% 30.28 in 10.0 mi Calm Calm - N/A   Clear
10:12 AM 48.2 °F - 30.2 °F 50% 30.27 in 10.0 mi Calm Calm - N/A   Clear
10:30 AM 53.6 °F - 30.2 °F 41% 30.27 in 10.0 mi Calm Calm - N/A   Clear
10:48 AM 53.6 °F - 30.2 °F 41% 30.26 in 10.0 mi Calm Calm - N/A   Clear
11:12 AM 59.0 °F - 30.2 °F 34% 30.25 in 10.0 mi Calm Calm - N/A   Clear
11:30 AM 60.8 °F - 32.0 °F 34% 30.24 in 10.0 mi Calm Calm - N/A   Clear
11:48 AM 60.8 °F - 32.0 °F 34% 30.23 in 10.0 mi NNW 3.5 mph - N/A   Clear
12:12 PM 64.4 °F - 32.0 °F 30% 30.22 in 10.0 mi Calm Calm - N/A   Clear
12:30 PM 68.0 °F - 33.8 °F 28% 30.21 in 10.0 mi Calm Calm - N/A   Clear
12:48 PM 68.0 °F - 32.0 °F 26% 30.21 in 10.0 mi Calm Calm - N/A   Clear
1:12 PM 69.8 °F - 32.0 °F 25% 30.19 in 10.0 mi Calm Calm - N/A   Clear
1:30 PM 71.6 °F - 32.0 °F 23% 30.18 in 10.0 mi North 6.9 mph - N/A   Clear
1:48 PM 73.4 °F - 33.8 °F 23% 30.17 in 10.0 mi NW 4.6 mph - N/A   Clear
2:12 PM 73.4 °F - 32.0 °F 22% 30.16 in 10.0 mi South 3.5 mph - N/A   Clear
2:30 PM 73.4 °F - 32.0 °F 22% 30.15 in 10.0 mi WNW 4.6 mph - N/A   Clear
2:48 PM 75.2 °F - 32.0 °F 21% 30.14 in 10.0 mi West 3.5 mph - N/A   Clear
3:12 PM 75.2 °F - 33.8 °F 22% 30.14 in 10.0 mi North 8.1 mph - N/A   Clear
3:30 PM 77.0 °F - 33.8 °F 21% 30.14 in 10.0 mi NW 5.8 mph 18.4 mph N/A   Clear
3:48 PM 75.2 °F - 33.8 °F 22% 30.14 in 10.0 mi North 9.2 mph - N/A   Clear
4:12 PM 75.2 °F - 35.6 °F 24% 30.14 in 10.0 mi North 11.5 mph 19.6 mph N/A   Clear
4:29 PM 73.4 °F - 33.8 °F 23% 30.14 in 10.0 mi North 17.3 mph 20.7 mph N/A   Clear
4:53 PM 73.4 °F - 33.8 °F 23% 30.14 in 10.0 mi NNW 9.2 mph - N/A   Clear
5:11 PM 73.4 °F - 33.8 °F 23% 30.15 in 10.0 mi North 15.0 mph - N/A   Clear
5:28 PM 73.4 °F - 33.8 °F 23% 30.16 in 10.0 mi North 10.4 mph - N/A   Clear
5:52 PM 69.8 °F - 33.8 °F 27% 30.16 in 10.0 mi North 12.7 mph - N/A   Clear
6:11 PM 69.8 °F - 33.8 °F 27% 30.16 in 10.0 mi North 10.4 mph - N/A   Clear
6:28 PM 68.0 °F - 32.0 °F 26% 30.16 in 10.0 mi NNW 8.1 mph - N/A   Clear
6:52 PM 68.0 °F - 33.8 °F 28% 30.17 in 10.0 mi NNW 8.1 mph - N/A   Clear
7:12 PM 64.4 °F - 33.8 °F 32% 30.18 in 10.0 mi NNW 8.1 mph - N/A   Clear
7:30 PM 62.6 °F - 32.0 °F 32% 30.19 in 10.0 mi NNW 10.4 mph - N/A   Clear
7:48 PM 62.6 °F - 32.0 °F 32% 30.19 in 10.0 mi NNW 10.4 mph - N/A   Clear
8:12 PM 60.8 °F - 32.0 °F 34% 30.21 in 10.0 mi NNW 6.9 mph - N/A   Clear
8:30 PM 60.8 °F - 32.0 °F 34% 30.21 in 10.0 mi North 5.8 mph - N/A   Clear
8:48 PM 55.4 °F - 32.0 °F 41% 30.22 in 10.0 mi NE 4.6 mph - N/A   Clear
9:12 PM 53.6 °F - 32.0 °F 44% 30.22 in 10.0 mi Calm Calm - N/A   Clear
9:30 PM 53.6 °F - 32.0 °F 44% 30.22 in 10.0 mi Calm Calm - N/A   Clear
9:48 PM 50.0 °F - 32.0 °F 50% 30.23 in 10.0 mi East 3.5 mph - N/A   Clear
10:12 PM 48.2 °F - 32.0 °F 54% 30.24 in 10.0 mi Calm Calm - N/A   Clear
10:30 PM 48.2 °F - 32.0 °F 54% 30.24 in 10.0 mi Calm Calm - N/A   Clear
10:48 PM 44.6 °F 43.1 °F 32.0 °F 61% 30.24 in 10.0 mi SE 3.5 mph - N/A   Clear
11:12 PM 42.8 °F 40.1 °F 32.0 °F 66% 30.24 in 10.0 mi NE 4.6 mph - N/A   Clear
11:30 PM 42.8 °F - 32.0 °F 66% 30.25 in 10.0 mi Calm Calm - N/A   Clear
11:48 PM 42.8 °F - 32.0 °F 66% 30.24 in 10.0 mi Calm Calm - N/A   Clear